createdAt,value
2023-08-23T00:01:23.861Z,1.75
2023-08-23T00:03:52.911Z,1.85
2023-08-23T00:06:20.255Z,1.38
2023-08-23T00:08:47.169Z,1.35
2023-08-23T00:11:13.993Z,2.30
2023-08-23T00:13:40.863Z,2.08
2023-08-23T00:16:07.705Z,3.42
2023-08-23T00:18:34.572Z,1.73
2023-08-23T00:21:01.517Z,1.85
2023-08-23T00:23:28.346Z,1.98
2023-08-23T00:25:55.193Z,2.58
2023-08-23T00:28:22.120Z,1.80
2023-08-23T00:30:58.231Z,1.45
2023-08-23T00:33:25.303Z,1.90
2023-08-23T00:35:52.228Z,1.75
2023-08-23T00:38:19.134Z,1.40
2023-08-23T00:40:46.050Z,1.60
2023-08-23T00:43:12.968Z,1.85
2023-08-23T00:45:42.186Z,1.90
2023-08-23T00:48:12.681Z,2.20
2023-08-23T00:50:41.589Z,1.80
2023-08-23T00:53:09.898Z,2.33
2023-08-23T00:55:37.533Z,1.38
2023-08-23T00:58:05.586Z,1.42
2023-08-23T01:00:33.505Z,2.05
2023-08-23T01:03:01.176Z,2.50
2023-08-23T01:05:40.968Z,2.28
2023-08-23T01:08:16.620Z,2.03
2023-08-23T01:10:52.011Z,2.03
2023-08-23T01:13:48.397Z,2.42
2023-08-23T01:16:17.162Z,2.22
2023-08-23T01:18:44.485Z,1.80
2023-08-23T01:21:15.902Z,2.58
2023-08-23T01:23:42.932Z,2.03
2023-08-23T01:26:09.790Z,2.00
2023-08-23T01:28:36.631Z,2.63
2023-08-23T01:31:07.609Z,2.10
2023-08-23T01:33:38.147Z,2.23
2023-08-23T01:36:20.216Z,2.50
2023-08-23T01:38:48.798Z,1.70
2023-08-23T01:41:17.020Z,2.38
2023-08-23T01:43:47.273Z,2.50
2023-08-23T01:46:14.599Z,2.30
2023-08-23T01:48:41.471Z,2.10
2023-08-23T01:51:08.351Z,1.90
2023-08-23T01:53:35.174Z,2.33
2023-08-23T01:56:02.190Z,2.10
2023-08-23T01:58:29.085Z,1.67
2023-08-23T02:00:55.992Z,2.60
2023-08-23T02:03:23.033Z,1.88
2023-08-23T02:05:49.969Z,2.15
2023-08-23T02:08:18.712Z,2.53
2023-08-23T02:10:45.674Z,2.35
2023-08-23T02:13:12.539Z,2.17
2023-08-23T02:15:39.611Z,2.70
2023-08-23T02:18:06.623Z,1.90
2023-08-23T02:20:33.480Z,2.00
2023-08-23T02:23:00.431Z,2.42
2023-08-23T02:25:27.324Z,2.67
2023-08-23T02:27:54.236Z,2.78
2023-08-23T02:30:21.193Z,2.20
2023-08-23T02:32:48.071Z,1.95
2023-08-23T02:35:15.259Z,3.83
2023-08-23T02:37:44.331Z,2.58
2023-08-23T02:40:11.516Z,2.72
2023-08-23T02:42:38.377Z,2.15
2023-08-23T02:45:05.649Z,2.25
2023-08-23T02:47:32.483Z,2.67
2023-08-23T02:49:59.346Z,2.60
2023-08-23T02:52:26.210Z,3.50
2023-08-23T02:54:53.037Z,2.50
2023-08-23T02:57:20.139Z,2.67
2023-08-23T02:59:46.988Z,2.45
2023-08-23T03:02:13.830Z,2.65
2023-08-23T03:04:40.758Z,2.60
2023-08-23T03:07:08.833Z,2.28
2023-08-23T03:09:35.696Z,2.80
2023-08-23T03:12:02.562Z,2.28
2023-08-23T03:14:30.744Z,2.58
2023-08-23T03:16:57.885Z,3.45
2023-08-23T03:19:24.819Z,2.40
2023-08-23T03:21:51.697Z,3.10
2023-08-23T03:24:18.595Z,2.90
2023-08-23T03:26:48.408Z,2.50
2023-08-23T03:29:17.095Z,3.00
2023-08-23T03:31:44.360Z,3.63
2023-08-23T03:34:13.368Z,3.05
2023-08-23T03:36:40.199Z,3.35
2023-08-23T03:39:07.251Z,3.70
2023-08-23T03:41:34.810Z,3.70
2023-08-23T03:44:01.671Z,4.35
2023-08-23T03:46:28.532Z,3.33
2023-08-23T03:48:55.834Z,3.70
2023-08-23T03:51:22.656Z,3.40
2023-08-23T03:53:49.665Z,3.15
2023-08-23T03:56:17.495Z,3.83
2023-08-23T03:58:44.346Z,3.78
2023-08-23T04:01:11.187Z,3.65
2023-08-23T04:03:38.140Z,4.03
2023-08-23T04:06:05.179Z,3.90
2023-08-23T04:08:32.076Z,4.00
2023-08-23T04:11:00.378Z,4.15
2023-08-23T04:13:27.182Z,3.45
2023-08-23T04:15:54.490Z,3.90
2023-08-23T04:18:21.358Z,3.80
2023-08-23T04:20:48.208Z,2.97
2023-08-23T04:23:15.004Z,3.20
2023-08-23T04:25:43.078Z,4.13
2023-08-23T04:28:09.953Z,4.25
2023-08-23T04:30:36.795Z,2.67
2023-08-23T04:33:04.013Z,3.13
2023-08-23T04:35:31.220Z,3.00
2023-08-23T04:37:58.041Z,3.33
2023-08-23T04:40:25.524Z,3.28
2023-08-23T04:42:52.578Z,3.83
2023-08-23T04:45:19.509Z,3.70
2023-08-23T04:47:48.218Z,3.17
2023-08-23T04:50:15.478Z,3.22
2023-08-23T04:52:43.435Z,3.42
2023-08-23T04:55:12.342Z,2.88
2023-08-23T04:57:39.237Z,2.85
2023-08-23T05:00:09.847Z,3.92
2023-08-23T05:02:38.299Z,3.20
2023-08-23T05:05:05.780Z,3.88
2023-08-23T05:07:35.210Z,4.10
2023-08-23T05:10:05.487Z,3.55
2023-08-23T05:12:33.649Z,3.38
2023-08-23T05:15:00.583Z,3.67
2023-08-23T05:17:27.511Z,3.42
2023-08-23T05:19:54.374Z,3.38
2023-08-23T05:22:21.764Z,5.03
2023-08-23T05:24:48.714Z,3.30
2023-08-23T05:27:15.576Z,3.58
2023-08-23T05:29:42.961Z,3.65
2023-08-23T05:32:09.793Z,3.83
2023-08-23T05:34:36.789Z,3.38
2023-08-23T05:37:03.903Z,4.57
2023-08-23T05:39:31.693Z,3.40
2023-08-23T05:41:58.520Z,4.85
2023-08-23T05:44:25.426Z,3.97
2023-08-23T05:46:52.312Z,3.25
2023-08-23T05:49:19.202Z,3.67
2023-08-23T05:51:47.394Z,2.85
2023-08-23T05:54:14.260Z,3.55
2023-08-23T05:56:41.151Z,4.13
2023-08-23T05:59:07.996Z,3.15
2023-08-23T06:01:34.918Z,5.15
2023-08-23T06:04:01.791Z,3.17
2023-08-23T06:06:28.685Z,4.00
2023-08-23T06:08:57.555Z,3.70
2023-08-23T06:11:25.518Z,4.20
2023-08-23T06:13:52.459Z,3.28
2023-08-23T06:16:19.352Z,3.80
2023-08-23T06:18:46.188Z,3.88
2023-08-23T06:21:13.085Z,3.17
2023-08-23T06:23:44.813Z,3.25
2023-08-23T06:26:12.355Z,2.95
2023-08-23T06:28:39.191Z,3.28
2023-08-23T06:31:06.029Z,3.75
2023-08-23T06:33:33.022Z,3.35
2023-08-23T06:35:59.964Z,3.60
2023-08-23T06:38:26.783Z,3.00
2023-08-23T06:40:53.662Z,3.42
2023-08-23T06:43:20.716Z,3.60
2023-08-23T06:45:47.801Z,3.28
2023-08-23T06:48:14.747Z,3.30
2023-08-23T06:50:41.644Z,3.75
2023-08-23T06:53:08.452Z,2.95
2023-08-23T06:55:40.698Z,3.88
2023-08-23T06:58:08.948Z,3.75
2023-08-23T07:00:36.717Z,3.40
2023-08-23T07:03:03.680Z,4.57
2023-08-23T07:05:30.520Z,6.18
2023-08-23T07:07:57.352Z,3.75
2023-08-23T07:10:28.675Z,4.60
2023-08-23T07:12:56.808Z,4.78
2023-08-23T07:15:24.256Z,3.42
2023-08-23T07:17:51.517Z,4.00
2023-08-23T07:20:18.576Z,3.50
2023-08-23T07:22:45.459Z,4.28
2023-08-23T07:25:12.351Z,3.85
2023-08-23T07:27:39.277Z,3.78
2023-08-23T07:30:06.788Z,3.45
2023-08-23T07:32:33.830Z,3.40
2023-08-23T07:35:04.431Z,4.18
2023-08-23T07:37:31.398Z,4.10
2023-08-23T07:39:58.415Z,4.75
2023-08-23T07:42:25.468Z,4.03
2023-08-23T07:44:53.260Z,5.55
2023-08-23T07:47:20.256Z,4.90
2023-08-23T07:49:47.819Z,4.45
2023-08-23T07:52:14.719Z,3.72
2023-08-23T07:54:41.615Z,3.90
2023-08-23T07:57:08.469Z,3.97
2023-08-23T07:59:35.413Z,4.10
2023-08-23T08:02:02.445Z,4.22
2023-08-23T08:04:31.089Z,3.35
2023-08-23T08:06:57.999Z,4.70
2023-08-23T08:09:24.982Z,4.07
2023-08-23T08:11:51.906Z,3.75
2023-08-23T08:14:19.177Z,4.80
2023-08-23T08:16:46.055Z,5.18
2023-08-23T08:19:12.907Z,4.20
2023-08-23T08:21:39.777Z,4.95
2023-08-23T08:24:06.757Z,4.68
2023-08-23T08:26:33.613Z,4.22
2023-08-23T08:29:00.497Z,3.60
2023-08-23T08:31:27.392Z,3.33
2023-08-23T08:33:54.314Z,3.90
2023-08-23T08:36:21.196Z,4.47
2023-08-23T08:38:48.113Z,4.13
2023-08-23T08:41:15.139Z,3.22
2023-08-23T08:43:42.149Z,4.03
2023-08-23T08:46:09.132Z,4.20
2023-08-23T08:48:35.991Z,4.28
2023-08-23T08:51:04.701Z,4.05
2023-08-23T08:53:35.307Z,4.82
2023-08-23T08:56:02.835Z,3.97
2023-08-23T08:58:31.097Z,3.78
2023-08-23T09:01:02.181Z,3.97
2023-08-23T09:03:30.650Z,4.30
2023-08-23T09:05:57.997Z,3.67
2023-08-23T09:08:24.865Z,3.90
2023-08-23T09:10:51.799Z,4.72
2023-08-23T09:13:18.838Z,3.83
2023-08-23T09:15:48.532Z,4.22
2023-08-23T09:18:18.648Z,3.22
2023-08-23T09:20:45.500Z,4.13
2023-08-23T09:23:12.383Z,4.40
2023-08-23T09:25:39.303Z,4.35
2023-08-23T09:28:11.516Z,3.92
2023-08-23T09:30:40.094Z,4.50
2023-08-23T09:33:11.165Z,4.35
2023-08-23T09:35:48.561Z,3.60
2023-08-23T09:38:24.294Z,3.85
2023-08-23T09:40:51.203Z,4.85
2023-08-23T09:43:18.326Z,4.47
2023-08-23T09:45:46.972Z,3.67
2023-08-23T09:48:19.888Z,3.25
2023-08-23T09:50:52.394Z,4.50
2023-08-23T09:53:26.351Z,3.72
2023-08-23T09:55:54.177Z,4.43
2023-08-23T09:58:21.962Z,4.25
2023-08-23T10:00:50.318Z,4.82
2023-08-23T10:03:18.093Z,3.75
2023-08-23T10:05:46.332Z,5.18
2023-08-23T10:08:13.510Z,4.30
2023-08-23T10:10:43.485Z,3.08
2023-08-23T10:13:10.612Z,4.43
2023-08-23T10:15:41.104Z,3.78
2023-08-23T10:18:13.999Z,4.47
2023-08-23T10:20:42.830Z,4.47
2023-08-23T10:23:17.547Z,4.72
2023-08-23T10:25:46.130Z,3.80
2023-08-23T10:28:19.989Z,4.38
2023-08-23T10:30:50.665Z,4.78
2023-08-23T10:33:19.369Z,4.05
2023-08-23T10:35:47.899Z,4.65
2023-08-23T10:38:15.404Z,3.55
2023-08-23T10:40:46.318Z,3.75
2023-08-23T10:43:18.227Z,4.15
2023-08-23T10:46:04.790Z,3.63
2023-08-23T10:48:32.530Z,3.80
2023-08-23T10:50:59.637Z,4.03
2023-08-23T10:53:28.948Z,4.28
2023-08-23T10:55:56.230Z,3.95
2023-08-23T10:58:23.061Z,4.35
2023-08-23T11:00:54.266Z,4.30
2023-08-23T11:03:21.682Z,4.47
2023-08-23T11:05:48.716Z,3.97
2023-08-23T11:08:16.321Z,3.72
2023-08-23T11:10:43.935Z,3.65
2023-08-23T11:13:10.917Z,4.45
2023-08-23T11:15:38.002Z,4.07
2023-08-23T11:18:05.836Z,4.40
2023-08-23T11:20:33.430Z,4.40
2023-08-23T11:23:00.308Z,4.22
2023-08-23T11:25:27.255Z,3.90
2023-08-23T11:27:54.173Z,3.80
2023-08-23T11:30:21.920Z,3.63
2023-08-23T11:32:49.152Z,3.67
2023-08-23T11:35:21.583Z,3.38
2023-08-23T11:37:50.879Z,3.47
2023-08-23T11:40:18.149Z,3.03
2023-08-23T11:42:46.468Z,2.30
2023-08-23T11:45:13.387Z,2.90
2023-08-23T11:47:40.943Z,3.25
2023-08-23T11:50:11.125Z,3.53
2023-08-23T11:52:38.494Z,3.17
2023-08-23T11:55:05.840Z,3.13
2023-08-23T11:57:35.798Z,2.90
2023-08-23T12:00:03.157Z,3.70
2023-08-23T12:02:33.888Z,3.42
2023-08-23T12:05:00.892Z,2.65
2023-08-23T12:07:27.768Z,2.97
2023-08-23T12:09:54.625Z,2.45
2023-08-23T12:12:22.765Z,3.15
2023-08-23T12:14:49.618Z,2.95
2023-08-23T12:17:16.456Z,3.05
2023-08-23T12:19:43.491Z,3.13
2023-08-23T12:22:12.811Z,3.13
2023-08-23T12:24:39.682Z,2.92
2023-08-23T12:27:06.505Z,2.13
2023-08-23T12:29:33.723Z,2.50
2023-08-23T12:32:00.687Z,3.58
2023-08-23T12:34:27.554Z,2.70
2023-08-23T12:36:54.449Z,2.60
2023-08-23T12:39:21.436Z,3.55
2023-08-23T12:41:48.546Z,3.13
2023-08-23T12:44:15.673Z,2.80
2023-08-23T12:46:42.573Z,2.53
2023-08-23T12:49:13.795Z,2.15
2023-08-23T12:51:41.732Z,3.20
2023-08-23T12:54:09.353Z,1.60
2023-08-23T12:56:36.920Z,2.15
2023-08-23T12:59:04.113Z,2.00
2023-08-23T13:01:31.750Z,2.40
2023-08-23T13:03:58.670Z,2.20
2023-08-23T13:06:25.736Z,2.00
2023-08-23T13:08:52.616Z,2.45
2023-08-23T13:11:19.548Z,2.38
2023-08-23T13:13:53.219Z,1.90
2023-08-23T13:16:20.528Z,2.40
2023-08-23T13:18:47.654Z,1.90
2023-08-23T13:21:14.573Z,2.13
2023-08-23T13:23:41.462Z,1.75
2023-08-23T13:26:09.379Z,2.33
2023-08-23T13:28:36.287Z,2.35
2023-08-23T13:31:05.360Z,2.08
2023-08-23T13:33:32.222Z,2.28
2023-08-23T13:36:00.036Z,2.60
2023-08-23T13:38:26.934Z,2.30
2023-08-23T13:40:53.774Z,2.72
2023-08-23T13:43:20.642Z,1.98
2023-08-23T13:45:47.528Z,2.33
2023-08-23T13:48:14.383Z,2.17
2023-08-23T13:50:41.255Z,2.85
2023-08-23T13:53:08.152Z,2.42
2023-08-23T13:55:35.059Z,2.33
2023-08-23T13:58:01.870Z,2.60
2023-08-23T14:00:28.798Z,2.35
2023-08-23T14:02:55.862Z,2.22
2023-08-23T14:05:25.625Z,3.17
2023-08-23T14:07:52.975Z,2.20
2023-08-23T14:10:20.080Z,3.00
2023-08-23T14:12:47.041Z,2.42
2023-08-23T14:15:14.373Z,2.78
2023-08-23T14:17:44.167Z,2.22
2023-08-23T14:20:12.039Z,3.00
2023-08-23T14:22:39.671Z,2.47
2023-08-23T14:25:07.742Z,2.72
2023-08-23T14:27:34.783Z,1.70
2023-08-23T14:30:01.709Z,2.55
2023-08-23T14:32:29.639Z,2.08
2023-08-23T14:34:56.621Z,1.90
2023-08-23T14:37:23.531Z,1.70
2023-08-23T14:39:50.575Z,1.98
2023-08-23T14:42:17.494Z,1.58
2023-08-23T14:44:44.753Z,1.85
2023-08-23T14:47:11.831Z,1.75
2023-08-23T14:49:38.923Z,1.83
2023-08-23T14:52:06.320Z,1.77
2023-08-23T14:54:33.321Z,1.98
2023-08-23T14:57:00.300Z,3.47
2023-08-23T14:59:27.251Z,2.20
2023-08-23T15:01:54.239Z,1.60
2023-08-23T15:04:21.258Z,1.40
2023-08-23T15:06:48.314Z,1.00
2023-08-23T15:09:15.262Z,1.15
2023-08-23T15:11:42.241Z,2.03
2023-08-23T15:14:11.773Z,1.70
2023-08-23T15:16:39.170Z,1.30
2023-08-23T15:19:06.168Z,1.38
2023-08-23T15:21:33.185Z,1.73
2023-08-23T15:24:00.212Z,1.17
2023-08-23T15:26:27.183Z,1.45
2023-08-23T15:28:56.768Z,1.75
2023-08-23T15:31:24.741Z,1.10
2023-08-23T15:33:51.916Z,1.77
2023-08-23T15:36:19.041Z,2.28
2023-08-23T15:38:46.052Z,1.33
2023-08-23T15:41:13.193Z,1.58
2023-08-23T15:43:40.267Z,1.30
2023-08-23T15:46:07.301Z,1.67
2023-08-23T15:48:34.393Z,1.38
2023-08-23T15:51:03.807Z,1.77
2023-08-23T15:53:30.791Z,1.90
2023-08-23T15:55:59.290Z,1.05
2023-08-23T15:58:26.828Z,1.70
2023-08-23T16:00:53.876Z,1.63
2023-08-23T16:03:21.195Z,1.30
2023-08-23T16:05:58.681Z,1.50
2023-08-23T16:08:26.110Z,1.48
2023-08-23T16:10:53.405Z,1.95
2023-08-23T16:13:27.256Z,1.70
2023-08-23T16:15:55.404Z,2.50
2023-08-23T16:18:22.732Z,1.92
2023-08-23T16:20:49.830Z,1.45
2023-08-23T16:23:17.150Z,0.90
2023-08-23T16:25:44.160Z,2.35
2023-08-23T16:28:11.277Z,1.77
2023-08-23T16:30:39.487Z,1.20
2023-08-23T16:33:07.536Z,1.83
2023-08-23T16:35:38.857Z,1.58
2023-08-23T16:38:11.447Z,1.40
2023-08-23T16:40:39.163Z,1.98
2023-08-23T16:43:10.297Z,1.38
2023-08-23T16:45:37.761Z,1.42
2023-08-23T16:48:05.159Z,1.83
2023-08-23T16:50:32.135Z,1.33
2023-08-23T16:52:59.288Z,1.17
2023-08-23T16:55:27.664Z,1.30
2023-08-23T16:57:54.889Z,1.35
2023-08-23T17:00:22.652Z,2.63
2023-08-23T17:02:52.047Z,1.27
2023-08-23T17:05:20.055Z,1.90
2023-08-23T17:07:47.953Z,1.48
2023-08-23T17:10:16.016Z,1.58
2023-08-23T17:12:43.234Z,1.40
2023-08-23T17:15:10.532Z,1.50
2023-08-23T17:17:38.108Z,1.40
2023-08-23T17:20:07.209Z,1.48
2023-08-23T17:22:35.116Z,1.83
2023-08-23T17:25:02.997Z,1.63
2023-08-23T17:27:31.809Z,1.60
2023-08-23T17:29:59.290Z,2.33
2023-08-23T17:32:26.860Z,1.98
2023-08-23T17:34:54.307Z,2.65
2023-08-23T17:37:21.638Z,1.50
2023-08-23T17:39:49.495Z,2.05
2023-08-23T17:42:17.219Z,2.33
2023-08-23T17:44:44.429Z,2.30
2023-08-23T17:47:12.044Z,2.03
2023-08-23T17:49:39.785Z,2.55
2023-08-23T17:52:07.288Z,1.70
2023-08-23T17:54:35.176Z,2.55
2023-08-23T17:57:02.651Z,1.80
2023-08-23T17:59:31.060Z,2.50
2023-08-23T18:01:58.632Z,4.18
2023-08-23T18:04:27.060Z,1.95
2023-08-23T18:06:54.774Z,2.25
2023-08-23T18:09:22.653Z,2.47
2023-08-23T18:11:50.021Z,2.40
2023-08-23T18:14:17.880Z,2.15
2023-08-23T18:16:45.127Z,3.42
2023-08-23T18:19:12.997Z,2.72
2023-08-23T18:21:40.529Z,2.65
2023-08-23T18:24:08.250Z,2.58
2023-08-23T18:26:35.345Z,2.15
2023-08-23T18:29:02.916Z,3.90
2023-08-23T18:31:30.081Z,2.33
2023-08-23T18:33:57.306Z,2.72
2023-08-23T18:36:24.434Z,2.72
2023-08-23T18:38:51.726Z,2.67
2023-08-23T18:41:19.094Z,2.67
2023-08-23T18:43:46.613Z,2.55
2023-08-23T18:46:14.205Z,1.90
2023-08-23T18:48:41.970Z,2.17
2023-08-23T18:51:09.390Z,2.72
2023-08-23T18:53:37.571Z,2.25
2023-08-23T18:56:05.138Z,2.08
2023-08-23T18:58:32.391Z,2.60
2023-08-23T19:01:00.954Z,2.67
2023-08-23T19:03:29.234Z,2.05
2023-08-23T19:05:56.786Z,1.95
2023-08-23T19:08:24.335Z,3.33
2023-08-23T19:10:51.865Z,2.20
2023-08-23T19:13:19.313Z,1.90
2023-08-23T19:15:46.718Z,2.67
2023-08-23T19:18:14.024Z,1.63
2023-08-23T19:20:41.646Z,1.73
2023-08-23T19:23:09.328Z,2.33
2023-08-23T19:25:36.946Z,2.75
2023-08-23T19:28:05.057Z,1.92
2023-08-23T19:30:33.139Z,2.28
2023-08-23T19:33:00.449Z,2.78
2023-08-23T19:35:44.643Z,1.95
2023-08-23T19:38:12.965Z,2.60
2023-08-23T19:40:40.590Z,2.00
2023-08-23T19:43:08.403Z,2.65
2023-08-23T19:45:35.729Z,2.20
2023-08-23T19:48:13.557Z,1.80
2023-08-23T19:50:49.092Z,2.58
2023-08-23T19:53:16.119Z,2.70
2023-08-23T19:55:43.036Z,2.60
2023-08-23T19:58:10.100Z,1.83
2023-08-23T20:00:37.087Z,1.70
2023-08-23T20:03:04.482Z,2.30
2023-08-23T20:05:31.582Z,2.60
2023-08-23T20:08:01.328Z,3.42
2023-08-23T20:10:29.247Z,2.08
2023-08-23T20:12:56.222Z,1.80
2023-08-23T20:15:23.156Z,2.33
2023-08-23T20:17:50.315Z,1.70
2023-08-23T20:20:17.570Z,2.28
2023-08-23T20:22:44.517Z,2.20
2023-08-23T20:25:11.478Z,1.88
2023-08-23T20:27:38.440Z,2.13
2023-08-23T20:30:06.177Z,1.90
2023-08-23T20:32:33.377Z,2.17
2023-08-23T20:35:00.433Z,1.75
2023-08-23T20:37:28.116Z,1.65
2023-08-23T20:39:55.113Z,2.03
2023-08-23T20:42:23.147Z,1.88
2023-08-23T20:44:50.310Z,1.60
2023-08-23T20:47:17.399Z,2.00
2023-08-23T20:49:44.429Z,2.17
2023-08-23T20:52:11.411Z,2.30
2023-08-23T20:54:38.364Z,1.80
2023-08-23T20:57:05.330Z,2.13
2023-08-23T20:59:32.360Z,2.45
2023-08-23T21:01:59.329Z,1.75
2023-08-23T21:04:26.885Z,2.17
2023-08-23T21:06:53.898Z,2.15
2023-08-23T21:09:20.884Z,1.65
2023-08-23T21:11:47.823Z,1.67
2023-08-23T21:14:14.820Z,1.73
2023-08-23T21:16:41.898Z,1.65
2023-08-23T21:19:08.962Z,2.08
2023-08-23T21:21:35.920Z,2.05
2023-08-23T21:24:02.953Z,2.10
2023-08-23T21:26:29.997Z,1.75
2023-08-23T21:28:58.391Z,1.85
2023-08-23T21:31:25.641Z,1.90
2023-08-23T21:33:52.787Z,1.63
2023-08-23T21:36:19.782Z,1.20
2023-08-23T21:38:46.718Z,1.73
2023-08-23T21:41:13.839Z,1.90
2023-08-23T21:43:40.823Z,2.28
2023-08-23T21:46:07.800Z,2.13
2023-08-23T21:48:34.896Z,1.73
2023-08-23T21:51:01.977Z,2.70
2023-08-23T21:53:28.967Z,2.03
2023-08-23T21:55:56.978Z,1.90
2023-08-23T21:58:25.786Z,2.17
2023-08-23T22:01:01.409Z,2.10
2023-08-23T22:03:32.619Z,1.85
2023-08-23T22:06:07.677Z,2.03
2023-08-23T22:08:40.247Z,2.05
2023-08-23T22:11:10.236Z,2.25
2023-08-23T22:13:37.182Z,2.28
2023-08-23T22:16:05.112Z,1.80
2023-08-23T22:18:32.189Z,1.88
2023-08-23T22:21:00.989Z,1.95
2023-08-23T22:23:28.380Z,1.60
2023-08-23T22:25:56.799Z,2.30
2023-08-23T22:28:25.124Z,2.08
2023-08-23T22:30:52.409Z,1.75
2023-08-23T22:33:19.448Z,1.83
2023-08-23T22:35:47.352Z,1.88
2023-08-23T22:38:14.817Z,1.67
2023-08-23T22:40:49.726Z,1.75
2023-08-23T22:43:18.095Z,2.95
2023-08-23T22:45:45.053Z,1.70
2023-08-23T22:48:12.198Z,1.98
2023-08-23T22:50:39.710Z,1.63
2023-08-23T22:53:06.863Z,2.00
2023-08-23T22:55:33.986Z,1.80
2023-08-23T22:58:00.946Z,2.03
2023-08-23T23:00:28.047Z,3.33
2023-08-23T23:02:55.145Z,2.38
2023-08-23T23:05:22.511Z,1.95
2023-08-23T23:07:49.851Z,2.42
2023-08-23T23:10:17.078Z,2.35
2023-08-23T23:12:44.151Z,1.85
2023-08-23T23:15:12.762Z,2.10
2023-08-23T23:17:41.469Z,1.83
2023-08-23T23:20:16.595Z,1.88
2023-08-23T23:22:43.878Z,2.22
2023-08-23T23:25:11.032Z,2.00
2023-08-23T23:27:38.860Z,2.10
2023-08-23T23:30:07.121Z,2.00
2023-08-23T23:32:34.963Z,2.13
2023-08-23T23:35:02.281Z,2.20
2023-08-23T23:37:29.243Z,2.38
2023-08-23T23:39:58.358Z,1.70
2023-08-23T23:42:25.744Z,2.45
2023-08-23T23:44:52.970Z,2.13
2023-08-23T23:47:20.153Z,1.88
2023-08-23T23:49:47.104Z,2.47
2023-08-23T23:52:14.088Z,2.40
2023-08-23T23:54:40.999Z,1.67
2023-08-23T23:57:07.954Z,2.67
2023-08-23T23:59:35.433Z,2.83
